Time;durP1;ratioP1;P1;durP2;ratioP2;P2;SDS_P1;SDS_P2;PMS_P1;PMS_P2;Temp;Humidity;BMP_temperature;BMP_pressure;BME280_temperature;BME280_humidity;BME280_pressure;Samples;Min_cycle;Max_cycle;Signal;HPM_P1;HPM_P2
2023/09/20 00:01:59;;;;;;;;;;;;;;;12.76;70.14;100676.23;105698;1268;125314;-81
2023/09/20 00:04:26;;;;;;;;;;;;;;;12.77;70.17;100671.85;105685;1270;60403;-81
2023/09/20 00:06:53;;;;;;;;;;;;;;;12.80;70.14;100674.00;105674;1270;61996;-81
2023/09/20 00:09:19;;;;;;;;;;;;;;;12.80;70.11;100676.99;105597;1272;125031;-81
2023/09/20 00:11:46;;;;;;;;;;;;;;;12.83;70.09;100677.58;105740;1268;65026;-89
2023/09/20 00:14:13;;;;;;;;;;;;;;;12.86;70.08;100677.41;105451;1268;125140;-82
2023/09/20 00:16:41;;;;;;;;;;;;;;;12.88;70.09;100676.92;105684;1268;62783;-82
2023/09/20 00:19:08;;;;;;;;;;;;;;;12.90;70.07;100680.48;105479;1268;125444;-81
2023/09/20 00:21:35;;;;;;;;;;;;;;;12.93;70.14;100679.12;105750;1268;74351;-82
2023/09/20 00:24:04;;;;;;;;;;;;;;;12.96;69.95;100681.08;105504;1271;65998;-88
2023/09/20 00:26:34;;;;;;;;;;;;;;;12.97;69.98;100677.77;105477;1273;125203;-86
2023/09/20 00:29:07;;;;;;;;;;;;;;;13.00;69.99;100676.57;105851;1270;62120;-82
2023/09/20 00:31:34;;;;;;;;;;;;;;;13.03;69.89;100677.84;105501;1270;125805;-81
2023/09/20 00:34:03;;;;;;;;;;;;;;;13.05;69.87;100675.24;105764;1271;75614;-88
2023/09/20 00:36:32;;;;;;;;;;;;;;;13.06;69.82;100669.59;105729;1270;66468;-88
2023/09/20 00:39:00;;;;;;;;;;;;;;;13.08;69.84;100674.73;105531;1268;125425;-81
2023/09/20 00:41:27;;;;;;;;;;;;;;;13.09;69.81;100675.98;105684;1268;60391;-81
2023/09/20 00:43:54;;;;;;;;;;;;;;;13.11;69.73;100675.48;105590;1268;125187;-81
2023/09/20 00:46:21;;;;;;;;;;;;;;;13.12;69.78;100677.09;105785;1268;75524;-89
2023/09/20 00:48:47;;;;;;;;;;;;;;;13.14;69.76;100673.59;105578;1268;64598;-88
2023/09/20 00:51:15;;;;;;;;;;;;;;;13.16;69.73;100672.02;105668;1270;125140;-88
2023/09/20 00:53:42;;;;;;;;;;;;;;;13.18;69.62;100669.25;105694;1267;62098;-88
2023/09/20 00:56:09;;;;;;;;;;;;;;;13.19;69.63;100667.67;105714;1268;125290;-88
2023/09/20 00:58:36;;;;;;;;;;;;;;;13.20;69.65;100667.15;105718;1268;75507;-86
2023/09/20 01:01:03;;;;;;;;;;;;;;;13.19;69.66;100669.26;105417;1271;124703;-87
2023/09/20 01:03:31;;;;;;;;;;;;;;;13.19;69.56;100671.55;105620;1270;72860;-85
2023/09/20 01:05:59;;;;;;;;;;;;;;;13.18;69.63;100670.30;105649;1268;61948;-87
2023/09/20 01:08:26;;;;;;;;;;;;;;;13.17;69.49;100669.23;105665;1270;124623;-87
2023/09/20 01:10:53;;;;;;;;;;;;;;;13.14;69.66;100661.96;105640;1273;75536;-87
2023/09/20 01:13:19;;;;;;;;;;;;;;;13.12;69.58;100670.75;105567;1268;124783;-85
2023/09/20 01:15:46;;;;;;;;;;;;;;;13.11;69.62;100671.08;105717;1268;72794;-86
2023/09/20 01:18:12;;;;;;;;;;;;;;;13.08;69.70;100668.75;105433;1270;61963;-79
2023/09/20 01:20:40;;;;;;;;;;;;;;;13.05;69.70;100666.06;105628;1270;124644;-79
2023/09/20 01:23:07;;;;;;;;;;;;;;;13.02;69.73;100666.55;105569;1270;73274;-80
2023/09/20 01:25:38;;;;;;;;;;;;;;;13.00;69.73;100668.46;105632;1271;124710;-80
2023/09/20 01:28:06;;;;;;;;;;;;;;;12.97;69.76;100670.73;105465;1268;71105;-85
2023/09/20 01:30:33;;;;;;;;;;;;;;;12.94;69.86;100668.39;105703;1268;62258;-86
2023/09/20 01:33:01;;;;;;;;;;;;;;;12.91;69.92;100668.17;105461;1268;124848;-85
2023/09/20 01:35:28;;;;;;;;;;;;;;;12.88;69.91;100665.48;105433;1268;73471;-86
2023/09/20 01:37:58;;;;;;;;;;;;;;;12.85;69.95;100665.98;105639;1268;124760;-86
2023/09/20 01:40:28;;;;;;;;;;;;;;;12.80;69.96;100667.85;105858;1268;72713;-86
2023/09/20 01:42:58;;;;;;;;;;;;;;;12.77;70.12;100668.84;105799;1268;62271;-85
2023/09/20 01:45:25;;;;;;;;;;;;;;;12.73;70.10;100667.90;105802;1275;62069;-87
2023/09/20 01:47:52;;;;;;;;;;;;;;;12.69;70.24;100666.61;105880;1268;75465;-86
2023/09/20 01:50:19;;;;;;;;;;;;;;;12.66;70.30;100668.52;105634;1268;124612;-87
2023/09/20 01:52:49;;;;;;;;;;;;;;;12.63;70.28;100673.04;105843;1268;71149;-87
2023/09/20 01:55:17;;;;;;;;;;;;;;;12.60;70.41;100671.06;105687;1270;124794;-87
2023/09/20 01:58:05;;;;;;;;;;;;;;;12.58;70.39;100671.55;105535;1267;61992;-87
2023/09/20 02:00:32;;;;;;;;;;;;;;;12.55;70.50;100670.63;105584;1267;75523;-87
2023/09/20 02:05:55;;;;;;;;;;;;;;;12.52;70.63;100670.41;105338;1268;71446;-87
2023/09/20 02:08:22;;;;;;;;;;;;;;;12.53;70.69;100672.88;105666;1268;125305;-88
2023/09/20 02:10:49;;;;;;;;;;;;;;;12.52;70.72;100676.58;105826;1269;62022;-81
2023/09/20 02:13:16;;;;;;;;;;;;;;;12.53;70.82;100676.75;105672;1268;125345;-87
2023/09/20 02:15:44;;;;;;;;;;;;;;;12.52;70.81;100677.80;105969;1268;66309;-82
2023/09/20 02:18:11;;;;;;;;;;;;;;;12.53;70.79;100677.29;105720;1267;72438;-82
2023/09/20 02:20:37;;;;;;;;;;;;;;;12.54;70.88;100681.17;105820;1268;125190;-81
2023/09/20 02:23:05;;;;;;;;;;;;;;;12.55;70.85;100682.07;105905;1268;60529;-81
2023/09/20 02:25:31;;;;;;;;;;;;;;;12.56;70.86;100681.38;105576;1268;126039;-82
2023/09/20 02:27:58;;;;;;;;;;;;;;;12.57;70.86;100684.91;105637;1267;66399;-81
2023/09/20 02:30:27;;;;;;;;;;;;;;;12.58;70.97;100689.15;105595;1268;70502;-87
2023/09/20 02:32:57;;;;;;;;;;;;;;;12.59;70.85;100685.48;105581;1268;125159;-87
2023/09/20 02:35:24;;;;;;;;;;;;;;;12.59;70.98;100691.80;105824;1268;62078;-88
2023/09/20 02:37:52;;;;;;;;;;;;;;;12.58;70.82;100691.10;105743;1268;125199;-86
2023/09/20 02:40:19;;;;;;;;;;;;;;;12.58;70.88;100692.86;105668;1270;64842;-87
2023/09/20 02:42:52;;;;;;;;;;;;;;;12.58;70.92;100688.82;105456;1270;71445;-87
2023/09/20 02:45:19;;;;;;;;;;;;;;;12.59;70.89;100684.96;105504;1273;125083;-87
2023/09/20 02:47:48;;;;;;;;;;;;;;;12.59;70.95;100684.08;105702;1268;61999;-86
2023/09/20 02:50:19;;;;;;;;;;;;;;;12.59;70.85;100685.48;105519;1268;125280;-84
2023/09/20 02:52:46;;;;;;;;;;;;;;;12.59;70.97;100686.19;105553;1268;64970;-85
2023/09/20 02:55:13;;;;;;;;;;;;;;;12.59;70.93;100687.58;105529;1270;125474;-85
2023/09/20 02:57:40;;;;;;;;;;;;;;;12.59;71.05;100687.95;105746;1270;62079;-86
2023/09/20 03:00:16;;;;;;;;;;;;;;;12.59;71.12;100685.48;105586;1275;62105;-88
2023/09/20 03:02:46;;;;;;;;;;;;;;;12.59;70.94;100686.70;105593;1268;125197;-87
2023/09/20 03:05:17;;;;;;;;;;;;;;;12.58;71.01;100690.39;105618;1274;66056;-85
2023/09/20 03:07:44;;;;;;;;;;;;;;;12.58;71.24;100695.14;105529;1273;125312;-85
2023/09/20 03:10:12;;;;;;;;;;;;;;;12.59;71.17;100700.27;105575;1268;62203;-85
2023/09/20 03:12:40;;;;;;;;;;;;;;;12.58;71.13;100692.16;105913;1268;61893;-85
2023/09/20 03:15:10;;;;;;;;;;;;;;;12.58;71.04;100688.27;105602;1268;125254;-87
2023/09/20 03:17:38;;;;;;;;;;;;;;;12.58;71.08;100686.17;105519;1269;65010;-88
2023/09/20 03:20:10;;;;;;;;;;;;;;;12.56;71.16;100689.84;105593;1273;126041;-87
2023/09/20 03:22:38;;;;;;;;;;;;;;;12.56;71.12;100689.13;105769;1267;62013;-87
2023/09/20 03:25:05;;;;;;;;;;;;;;;12.53;71.14;100690.66;105620;1268;125303;-87
2023/09/20 03:27:31;;;;;;;;;;;;;;;12.53;71.12;100691.71;105765;1272;75489;-88
2023/09/20 03:29:58;;;;;;;;;;;;;;;12.52;71.20;100691.71;105698;1268;66365;-88
2023/09/20 03:32:24;;;;;;;;;;;;;;;12.51;71.20;100692.92;105690;1272;124467;-86
2023/09/20 03:34:55;;;;;;;;;;;;;;;12.50;71.32;100693.25;105701;1268;60445;-86
2023/09/20 03:37:22;;;;;;;;;;;;;;;12.49;71.41;100692.71;105599;1268;124654;-87
2023/09/20 03:39:51;;;;;;;;;;;;;;;12.47;71.29;100694.08;105809;1267;75353;-85
2023/09/20 03:42:17;;;;;;;;;;;;;;;12.44;71.38;100689.63;105903;1268;66295;-85
2023/09/20 03:44:45;;;;;;;;;;;;;;;12.41;71.37;100688.55;105730;1268;123507;-86
2023/09/20 03:47:12;;;;;;;;;;;;;;;12.40;71.44;100686.41;105815;1273;62064;-86
2023/09/20 03:49:39;;;;;;;;;;;;;;;12.38;71.41;100683.02;105660;1268;124643;-88
2023/09/20 03:52:06;;;;;;;;;;;;;;;12.36;71.52;100688.98;105554;1268;75530;-88
2023/09/20 03:54:35;;;;;;;;;;;;;;;12.35;71.59;100687.55;105771;1269;66303;-91
2023/09/20 03:57:04;;;;;;;;;;;;;;;12.33;71.67;100688.39;105682;1272;124712;-86
2023/09/20 03:59:33;;;;;;;;;;;;;;;12.31;71.63;100688.70;105654;1270;62088;-87
2023/09/20 04:02:00;;;;;;;;;;;;;;;12.28;71.66;100686.73;105495;1272;123556;-87
2023/09/20 04:04:26;;;;;;;;;;;;;;;12.26;71.74;100686.69;105902;1267;75296;-86
2023/09/20 04:06:54;;;;;;;;;;;;;;;12.23;71.84;100688.23;105810;1267;66296;-89
2023/09/20 04:09:21;;;;;;;;;;;;;;;12.22;71.87;100688.58;105625;1272;124295;-86
2023/09/20 04:11:48;;;;;;;;;;;;;;;12.21;72.01;100685.38;105605;1267;60502;-85
2023/09/20 04:14:14;;;;;;;;;;;;;;;12.20;72.04;100686.94;105460;1273;124680;-85
2023/09/20 04:16:41;;;;;;;;;;;;;;;12.18;72.22;100683.23;105760;1272;73504;-84
2023/09/20 04:19:08;;;;;;;;;;;;;;;12.17;72.11;100683.55;105665;1268;124777;-83
2023/09/20 04:21:37;;;;;;;;;;;;;;;12.15;72.15;100685.98;105648;1268;72698;-81
2023/09/20 04:24:05;;;;;;;;;;;;;;;12.14;72.21;100691.94;105609;1270;60188;-80
2023/09/20 04:26:31;;;;;;;;;;;;;;;12.14;72.29;100690.52;105531;1267;125359;-83
2023/09/20 04:28:58;;;;;;;;;;;;;;;12.14;72.39;100693.19;105650;1268;62091;-89
2023/09/20 04:31:24;;;;;;;;;;;;;;;12.17;72.48;100696.40;105476;1270;125834;-84
2023/09/20 04:33:52;;;;;;;;;;;;;;;12.21;72.50;100696.83;105720;1268;62203;-84
2023/09/20 04:36:19;;;;;;;;;;;;;;;12.27;72.59;100698.86;105825;1273;62187;-84
2023/09/20 04:38:45;;;;;;;;;;;;;;;12.35;72.65;100699.70;105566;1271;126156;-81
2023/09/20 04:41:14;;;;;;;;;;;;;;;12.44;72.60;100699.14;105723;1267;62174;-80
2023/09/20 04:43:40;;;;;;;;;;;;;;;12.55;72.61;100697.73;105471;1268;126318;-84
2023/09/20 04:46:07;;;;;;;;;;;;;;;12.77;72.57;100700.02;105715;1268;62155;-87
2023/09/20 04:48:33;;;;;;;;;;;;;;;12.99;72.39;100699.63;105771;1272;62055;-82
2023/09/20 04:51:00;;;;;;;;;;;;;;;13.19;72.23;100702.73;105566;1268;125142;-82
2023/09/20 04:53:27;;;;;;;;;;;;;;;13.37;71.95;100701.92;105780;1272;75222;-82
2023/09/20 04:55:56;;;;;;;;;;;;;;;13.54;71.68;100696.33;105516;1270;125197;-82
2023/09/20 04:58:22;;;;;;;;;;;;;;;13.73;71.60;100697.23;105725;1272;71416;-82
2023/09/20 05:00:49;;;;;;;;;;;;;;;13.93;71.33;100698.17;105772;1270;62024;-81
2023/09/20 05:03:15;;;;;;;;;;;;;;;14.08;71.01;100698.16;105772;1268;125171;-81
2023/09/20 05:05:44;;;;;;;;;;;;;;;14.25;70.97;100694.43;105691;1272;75666;-85
2023/09/20 05:08:15;;;;;;;;;;;;;;;14.45;70.60;100693.02;105631;1272;125263;-87
2023/09/20 05:10:43;;;;;;;;;;;;;;;14.60;70.44;100689.45;105855;1270;71587;-82
2023/09/20 05:13:09;;;;;;;;;;;;;;;14.76;70.14;100692.92;105703;1268;125451;-88
2023/09/20 05:15:39;;;;;;;;;;;;;;;14.90;69.97;100693.55;105841;1268;62042;-85
2023/09/20 05:18:06;;;;;;;;;;;;;;;15.05;69.71;100695.23;105919;1268;75399;-84
2023/09/20 05:20:36;;;;;;;;;;;;;;;15.19;69.62;100696.02;105824;1268;124710;-90
2023/09/20 05:23:05;;;;;;;;;;;;;;;15.35;69.38;100698.40;105895;1268;71397;-89
2023/09/20 05:25:33;;;;;;;;;;;;;;;15.48;69.07;100698.45;106167;1268;124785;-90
2023/09/20 05:28:00;;;;;;;;;;;;;;;15.58;68.72;100698.48;105720;1268;60401;-87
2023/09/20 05:30:26;;;;;;;;;;;;;;;15.64;68.47;100701.52;106056;1267;75543;-91
2023/09/20 05:32:53;;;;;;;;;;;;;;;15.71;68.35;100705.96;105833;1267;125417;-88
2023/09/20 05:35:19;;;;;;;;;;;;;;;15.80;68.24;100707.61;105550;1270;72852;-87
2023/09/20 05:37:46;;;;;;;;;;;;;;;15.88;68.07;100711.00;105580;1268;124716;-88
2023/09/20 05:40:19;;;;;;;;;;;;;;;15.96;67.88;100709.41;105460;1268;62097;-87
2023/09/20 05:42:50;;;;;;;;;;;;;;;16.06;67.81;100711.03;105601;1268;75520;-88
2023/09/20 05:45:19;;;;;;;;;;;;;;;16.15;67.52;100713.54;105641;1268;124412;-89
2023/09/20 05:47:46;;;;;;;;;;;;;;;16.24;67.38;100717.44;105674;1268;70993;-89
2023/09/20 05:50:15;;;;;;;;;;;;;;;16.32;67.26;100714.43;105945;1268;124415;-83
2023/09/20 05:52:43;;;;;;;;;;;;;;;16.41;67.08;100713.38;105794;1268;62081;-84
2023/09/20 05:55:16;;;;;;;;;;;;;;;16.46;66.75;100710.71;105704;1272;124672;-85
2023/09/20 05:57:43;;;;;;;;;;;;;;;16.51;66.68;100717.27;105743;1266;66604;-87
2023/09/20 06:00:16;;;;;;;;;;;;;;;16.58;66.58;100711.08;105814;1268;72748;-87
2023/09/20 06:02:43;;;;;;;;;;;;;;;16.60;66.26;100708.42;105616;1268;125058;-90
2023/09/20 06:05:11;;;;;;;;;;;;;;;16.62;66.15;100710.89;105687;1276;60765;-89
2023/09/20 06:07:40;;;;;;;;;;;;;;;16.66;66.05;100708.95;105732;1276;125377;-86
2023/09/20 06:10:07;;;;;;;;;;;;;;;16.71;65.94;100704.69;105765;1268;65976;-90
2023/09/20 06:12:34;;;;;;;;;;;;;;;16.78;65.83;100705.73;105560;1275;72744;-89
2023/09/20 06:15:00;;;;;;;;;;;;;;;16.85;65.82;100706.48;105735;1268;125322;-89
2023/09/20 06:17:28;;;;;;;;;;;;;;;16.94;65.66;100711.77;105786;1268;62158;-89
2023/09/20 06:19:56;;;;;;;;;;;;;;;17.01;65.47;100711.77;105605;1268;125376;-89
2023/09/20 06:22:23;;;;;;;;;;;;;;;17.08;65.38;100719.38;105996;1270;66266;-88
2023/09/20 06:24:50;;;;;;;;;;;;;;;17.19;65.29;100717.93;105802;1267;72507;-77
2023/09/20 06:27:16;;;;;;;;;;;;;;;17.29;65.18;100718.77;105689;1268;126041;-77
2023/09/20 06:29:43;;;;;;;;;;;;;;;17.40;64.98;100721.05;105738;1268;62161;-89
2023/09/20 06:32:10;;;;;;;;;;;;;;;17.51;64.85;100724.04;105713;1267;124485;-89
2023/09/20 06:34:36;;;;;;;;;;;;;;;17.62;64.68;100725.59;106068;1273;66245;-87
2023/09/20 06:37:03;;;;;;;;;;;;;;;17.75;64.50;100724.10;105929;1271;125354;-88
2023/09/20 06:39:29;;;;;;;;;;;;;;;17.85;64.28;100723.19;105766;1270;62171;-88
2023/09/20 06:41:57;;;;;;;;;;;;;;;17.95;64.12;100727.23;106381;1268;61909;-88
2023/09/20 06:44:24;;;;;;;;;;;;;;;18.02;63.88;100720.61;106214;1268;124604;-89
2023/09/20 06:46:50;;;;;;;;;;;;;;;18.05;63.68;100722.36;106230;1267;66310;-89
2023/09/20 06:49:17;;;;;;;;;;;;;;;18.10;63.55;100727.85;106068;1268;124604;-88
2023/09/20 06:51:44;;;;;;;;;;;;;;;18.17;63.33;100728.15;105931;1268;61946;-89
2023/09/20 06:54:11;;;;;;;;;;;;;;;18.26;63.25;100727.91;105879;1268;61957;-89
2023/09/20 06:56:37;;;;;;;;;;;;;;;18.33;63.06;100726.09;105760;1268;124658;-89
2023/09/20 06:59:05;;;;;;;;;;;;;;;18.40;63.00;100724.27;105718;1268;64056;-90
2023/09/20 07:01:32;;;;;;;;;;;;;;;18.50;63.01;100726.31;105552;1268;125583;-89
2023/09/20 07:03:59;;;;;;;;;;;;;;;18.65;62.82;100726.55;105671;1270;62049;-89
2023/09/20 07:06:25;;;;;;;;;;;;;;;18.76;62.73;100723.08;105666;1275;62081;-89
2023/09/20 07:08:52;;;;;;;;;;;;;;;18.96;62.67;100726.30;105730;1268;124594;-90
2023/09/20 07:11:19;;;;;;;;;;;;;;;19.14;62.43;100728.41;105687;1268;65037;-90
2023/09/20 07:13:45;;;;;;;;;;;;;;;19.31;62.21;100731.62;105626;1270;124453;-89
2023/09/20 07:16:12;;;;;;;;;;;;;;;19.44;61.86;100732.73;105701;1273;62184;-89
2023/09/20 07:18:44;;;;;;;;;;;;;;;19.56;61.46;100731.84;105845;1273;62066;-90
2023/09/20 07:21:10;;;;;;;;;;;;;;;19.67;61.38;100736.52;105850;1267;124615;-90
2023/09/20 07:23:37;;;;;;;;;;;;;;;19.80;61.28;100742.63;105874;1268;66333;-89
2023/09/20 07:26:03;;;;;;;;;;;;;;;19.91;60.99;100747.11;105704;1268;124465;-90
2023/09/20 07:28:31;;;;;;;;;;;;;;;19.96;60.87;100752.55;106027;1268;62084;-90
2023/09/20 07:30:57;;;;;;;;;;;;;;;20.03;60.60;100750.48;105849;1268;62017;-90
2023/09/20 07:33:24;;;;;;;;;;;;;;;20.08;60.29;100753.81;105691;1268;73672;-90
2023/09/20 07:35:58;;;;;;;;;;;;;;;20.10;60.13;100752.71;105866;1267;65077;-89
2023/09/20 07:38:29;;;;;;;;;;;;;;;20.12;59.89;100753.94;105784;1268;124443;-89
2023/09/20 07:41:17;;;;;;;;;;;;;;;20.19;59.79;100755.97;105746;1272;62170;-90
2023/09/20 07:43:47;;;;;;;;;;;;;;;20.28;59.73;100751.74;105518;1267;125249;-88
2023/09/20 07:46:14;;;;;;;;;;;;;;;20.37;59.53;100754.27;105569;1268;183057;-87
2023/09/20 07:48:48;;;;;;;;;;;;;;;20.42;59.37;100755.81;105743;1268;66321;-89
2023/09/20 07:51:20;;;;;;;;;;;;;;;20.49;59.30;100757.83;105544;1268;124646;-88
2023/09/20 07:53:52;;;;;;;;;;;;;;;20.55;59.12;100760.42;105816;1267;62197;-88
2023/09/20 07:56:19;;;;;;;;;;;;;;;20.56;58.89;100758.08;105532;1270;124728;-89
2023/09/20 07:58:46;;;;;;;;;;;;;;;20.59;58.77;100760.71;105664;1275;74272;-89
2023/09/20 08:01:19;;;;;;;;;;;;;;;20.64;58.63;100760.67;105769;1268;124818;-89
2023/09/20 08:03:53;;;;;;;;;;;;;;;20.70;58.59;100761.09;105704;1270;73017;-89
2023/09/20 08:06:29;;;;;;;;;;;;;;;20.81;58.56;100765.91;105620;1276;62011;-89
2023/09/20 08:08:56;;;;;;;;;;;;;;;20.95;58.40;100763.69;105583;1270;123717;-89
2023/09/20 08:11:22;;;;;;;;;;;;;;;21.01;58.13;100764.66;105862;1268;75492;-89
2023/09/20 08:13:50;;;;;;;;;;;;;;;21.06;57.93;100770.30;105561;1268;123372;-89
2023/09/20 08:16:16;;;;;;;;;;;;;;;21.13;57.95;100768.73;105744;1268;72718;-82
2023/09/20 08:21:29;;;;;;;;;;;;;;;21.26;57.64;100767.60;105881;1272;61974;-80
2023/09/20 09:00:08;;;;;;;;;;;;;;;21.08;56.51;100783.09;105530;1274;62089;-80
2023/09/20 09:02:34;;;;;;;;;;;;;;;21.10;56.54;100782.70;105569;1270;124981;-80
2023/09/20 09:05:01;;;;;;;;;;;;;;;21.14;56.49;100780.50;105434;1268;74169;-78
2023/09/20 09:07:27;;;;;;;;;;;;;;;21.15;56.41;100779.92;105498;1275;124734;-79
2023/09/20 09:09:54;;;;;;;;;;;;;;;21.10;56.33;100778.07;105799;1268;71441;-81
2023/09/20 09:12:21;;;;;;;;;;;;;;;21.07;56.42;100777.93;105670;1268;62286;-80
2023/09/20 09:14:48;;;;;;;;;;;;;;;21.00;56.38;100777.00;105584;1267;124638;-80
2023/09/20 09:17:16;;;;;;;;;;;;;;;20.92;56.43;100782.13;105616;1276;73622;-81
2023/09/20 09:19:42;;;;;;;;;;;;;;;20.87;56.48;100782.23;105420;1267;125472;-79
2023/09/20 09:22:10;;;;;;;;;;;;;;;20.84;56.63;100784.05;105673;1268;71842;-79
2023/09/20 09:24:47;;;;;;;;;;;;;;;20.79;56.48;100783.77;105753;1268;62211;-83
2023/09/20 09:27:15;;;;;;;;;;;;;;;20.80;56.59;100784.83;105752;1273;129987;-83
2023/09/20 09:29:42;;;;;;;;;;;;;;;20.82;56.65;100785.85;105759;1268;74321;-84
2023/09/20 09:32:08;;;;;;;;;;;;;;;20.87;56.77;100781.69;105765;1272;124940;-84
2023/09/20 09:34:36;;;;;;;;;;;;;;;20.93;56.80;100785.33;105802;1273;72751;-85
2023/09/20 09:37:03;;;;;;;;;;;;;;;20.93;56.73;100784.98;105682;1267;62087;-82
2023/09/20 09:39:30;;;;;;;;;;;;;;;20.94;56.78;100784.41;106094;1268;60184;-80
2023/09/20 09:41:57;;;;;;;;;;;;;;;20.98;56.62;100779.35;105753;1268;73980;-84
2023/09/20 09:44:25;;;;;;;;;;;;;;;21.01;56.72;100778.76;105916;1267;124634;-85
2023/09/20 09:46:51;;;;;;;;;;;;;;;21.01;56.54;100778.41;106022;1267;72455;-81
2023/09/20 09:49:18;;;;;;;;;;;;;;;20.95;56.44;100782.06;105807;1266;125138;-80
2023/09/20 09:51:45;;;;;;;;;;;;;;;20.88;56.61;100780.59;105896;1270;62079;-80
2023/09/20 09:54:12;;;;;;;;;;;;;;;20.81;56.77;100781.24;107998;1268;75558;-81
2023/09/20 09:56:39;;;;;;;;;;;;;;;20.76;56.80;100780.45;107933;1269;124902;-80
2023/09/20 09:59:06;;;;;;;;;;;;;;;20.67;56.87;100779.52;105797;1268;71432;-80
2023/09/20 10:01:36;;;;;;;;;;;;;;;20.67;57.36;100775.77;105361;1275;124806;-79
2023/09/20 10:04:10;;;;;;;;;;;;;;;20.70;57.44;100777.34;105468;1268;60256;-80
2023/09/20 10:06:57;;;;;;;;;;;;;;;20.65;57.20;100776.51;105699;1268;75564;-80
2023/09/20 10:09:24;;;;;;;;;;;;;;;20.59;57.48;100784.42;105589;1268;124553;-80
2023/09/20 10:11:51;;;;;;;;;;;;;;;20.56;57.45;100785.36;105658;1268;71450;-80
2023/09/20 10:14:22;;;;;;;;;;;;;;;20.54;57.39;100787.17;105645;1268;124445;-80
2023/09/20 10:16:49;;;;;;;;;;;;;;;20.49;57.49;100789.04;105674;1268;62155;-80
2023/09/20 10:19:16;;;;;;;;;;;;;;;20.51;57.81;100794.19;105528;1271;128971;-80
2023/09/20 10:22:01;;;;;;;;;;;;;;;20.52;57.73;100786.30;105804;1272;66282;-81
2023/09/20 10:24:28;;;;;;;;;;;;;;;20.57;58.03;100790.16;105622;1268;71384;-80
2023/09/20 10:26:59;;;;;;;;;;;;;;;20.65;58.18;100789.52;105610;1268;124536;-80
2023/09/20 10:29:26;;;;;;;;;;;;;;;20.73;58.13;100792.78;105590;1268;62159;-80
2023/09/20 10:31:54;;;;;;;;;;;;;;;20.80;58.11;100796.96;105645;1268;124448;-81
2023/09/20 10:34:21;;;;;;;;;;;;;;;20.89;58.08;100787.72;106132;1273;66130;-80
2023/09/20 10:36:51;;;;;;;;;;;;;;;20.99;58.11;100779.51;105839;1267;71414;-80
2023/09/20 10:39:18;;;;;;;;;;;;;;;21.13;58.20;100770.33;105539;1270;125259;-81
2023/09/20 10:41:45;;;;;;;;;;;;;;;21.32;58.16;100770.35;105885;1267;62016;-80
2023/09/20 10:44:28;;;;;;;;;;;;;;;21.47;57.98;100774.73;105748;1267;125012;-80
2023/09/20 10:46:58;;;;;;;;;;;;;;;21.56;57.50;100779.90;106094;1267;66308;-81
2023/09/20 10:49:41;;;;;;;;;;;;;;;21.56;57.27;100778.65;105983;1268;125265;-81
2023/09/20 10:52:08;;;;;;;;;;;;;;;21.54;57.33;100783.67;105843;1270;60502;-80
2023/09/20 10:54:36;;;;;;;;;;;;;;;21.53;57.17;100780.15;105905;1267;62325;-81
2023/09/20 10:57:07;;;;;;;;;;;;;;;21.50;57.18;100777.52;105727;1268;124595;-80
2023/09/20 10:59:34;;;;;;;;;;;;;;;21.49;57.25;100775.92;105618;1267;66045;-80
2023/09/20 11:02:02;;;;;;;;;;;;;;;21.48;57.20;100772.02;105575;1268;124631;-80
2023/09/20 11:04:29;;;;;;;;;;;;;;;21.42;57.08;100767.48;105777;1268;62072;-80
2023/09/20 11:06:59;;;;;;;;;;;;;;;21.40;57.34;100768.59;105614;1276;62082;-80
2023/09/20 11:09:30;;;;;;;;;;;;;;;21.40;57.44;100762.52;105352;1269;124585;-81
2023/09/20 11:12:04;;;;;;;;;;;;;;;21.43;57.56;100766.58;105656;1268;66095;-81
2023/09/20 11:14:31;;;;;;;;;;;;;;;21.46;57.53;100762.96;105443;1273;124640;-81
2023/09/20 11:16:58;;;;;;;;;;;;;;;21.52;57.61;100758.90;105764;1268;62194;-79
2023/09/20 11:19:26;;;;;;;;;;;;;;;21.64;57.86;100749.58;105581;1273;124575;-81
2023/09/20 11:21:53;;;;;;;;;;;;;;;21.77;57.79;100753.04;105662;1268;75562;-81
2023/09/20 11:24:20;;;;;;;;;;;;;;;21.93;57.72;100749.29;105753;1268;64981;-81
2023/09/20 11:26:49;;;;;;;;;;;;;;;22.10;57.48;100748.38;105605;1270;124562;-81
2023/09/20 11:29:16;;;;;;;;;;;;;;;22.27;57.32;100746.94;105594;1272;62449;-81
2023/09/20 11:31:44;;;;;;;;;;;;;;;22.36;56.95;100750.68;105430;1268;124964;-82
2023/09/20 11:34:12;;;;;;;;;;;;;;;22.42;56.72;100753.23;105560;1271;75260;-82
2023/09/20 11:36:40;;;;;;;;;;;;;;;22.41;56.52;100749.14;105672;1272;66272;-82
2023/09/20 11:39:07;;;;;;;;;;;;;;;22.41;56.67;100750.02;105312;1273;124637;-82
2023/09/20 11:41:35;;;;;;;;;;;;;;;22.47;56.63;100754.18;105483;1273;62062;-81
2023/09/20 11:44:02;;;;;;;;;;;;;;;22.59;56.67;100751.93;105438;1276;124732;-81
2023/09/20 11:46:35;;;;;;;;;;;;;;;22.67;56.45;100744.92;105483;1274;75529;-80
2023/09/20 11:49:03;;;;;;;;;;;;;;;22.80;56.59;100745.13;105670;1271;65163;-84
2023/09/20 11:51:32;;;;;;;;;;;;;;;22.91;56.34;100743.20;105415;1273;125090;-81
2023/09/20 11:54:00;;;;;;;;;;;;;;;23.02;56.07;100742.40;105582;1269;62072;-82
2023/09/20 11:56:29;;;;;;;;;;;;;;;23.12;55.92;100741.83;105364;1270;124980;-85
2023/09/20 11:58:59;;;;;;;;;;;;;;;23.15;55.85;100746.92;105927;1270;74237;-85
2023/09/20 12:01:29;;;;;;;;;;;;;;;23.16;55.40;100749.04;105435;1272;124622;-85
2023/09/20 12:03:56;;;;;;;;;;;;;;;23.10;55.09;100750.68;105560;1270;71129;-84
2023/09/20 12:06:24;;;;;;;;;;;;;;;23.03;55.11;100744.70;105547;1270;60838;-84
2023/09/20 12:08:54;;;;;;;;;;;;;;;22.98;55.02;100752.90;105546;1270;123451;-84
2023/09/20 12:11:20;;;;;;;;;;;;;;;22.90;55.31;100745.41;105549;1275;75623;-84
2023/09/20 12:13:47;;;;;;;;;;;;;;;22.84;55.30;100740.71;105577;1269;124985;-85
2023/09/20 12:16:14;;;;;;;;;;;;;;;22.76;55.37;100732.54;105630;1269;71404;-84
2023/09/20 12:18:42;;;;;;;;;;;;;;;22.68;55.32;100739.52;105609;1271;62209;-84
2023/09/20 12:21:09;;;;;;;;;;;;;;;22.61;55.27;100739.17;105669;1270;124528;-84
2023/09/20 12:23:35;;;;;;;;;;;;;;;22.54;55.38;100736.13;105590;1271;75572;-84
2023/09/20 12:26:03;;;;;;;;;;;;;;;22.50;55.62;100740.14;105463;1271;124986;-84
2023/09/20 12:28:29;;;;;;;;;;;;;;;22.51;55.55;100737.44;105534;1270;72816;-84
2023/09/20 12:30:58;;;;;;;;;;;;;;;22.44;55.65;100737.80;105680;1271;62126;-85
2023/09/20 12:33:25;;;;;;;;;;;;;;;22.37;55.59;100731.71;105639;1270;124403;-84
2023/09/20 12:35:52;;;;;;;;;;;;;;;22.37;55.71;100734.74;105647;1269;75538;-85
2023/09/20 12:38:19;;;;;;;;;;;;;;;22.37;55.68;100731.34;105431;1269;125022;-84
2023/09/20 12:40:46;;;;;;;;;;;;;;;22.40;55.82;100726.80;105664;1271;72745;-85
2023/09/20 12:43:15;;;;;;;;;;;;;;;22.42;55.68;100726.05;105508;1273;125193;-82
2023/09/20 12:45:46;;;;;;;;;;;;;;;22.42;55.51;100723.55;105754;1270;60299;-82
2023/09/20 12:48:13;;;;;;;;;;;;;;;22.42;55.56;100724.60;105639;1272;75238;-80
2023/09/20 12:50:41;;;;;;;;;;;;;;;22.44;55.56;100718.84;105488;1276;125762;-82
2023/09/20 12:53:08;;;;;;;;;;;;;;;22.44;55.54;100720.80;105570;1272;72573;-82
2023/09/20 12:55:37;;;;;;;;;;;;;;;22.45;55.56;100718.83;105373;1270;125617;-82
2023/09/20 12:58:07;;;;;;;;;;;;;;;22.43;55.34;100716.55;106057;1270;60146;-82
2023/09/20 13:00:34;;;;;;;;;;;;;;;22.39;55.43;100716.81;105481;1273;75261;-80
2023/09/20 13:03:01;;;;;;;;;;;;;;;22.38;55.43;100717.91;105555;1271;124599;-81
2023/09/20 13:05:29;;;;;;;;;;;;;;;22.36;55.36;100720.11;105866;1272;72634;-83
2023/09/20 13:07:59;;;;;;;;;;;;;;;22.34;55.34;100723.03;105653;1269;124782;-85
2023/09/20 13:10:27;;;;;;;;;;;;;;;22.30;55.43;100726.34;105720;1271;60447;-81